Current Conditions
Partly Cloudy
Conditions




Pressure
1001.92 (mb) - 29.59 (inHG)
Visibility

10.0 (km) - 6.2 (miles)
   Temperature
11  °C
52°F
5  °C
Dewpoint
67  %
 Humidity
   Wind Speed
2.7  m/s
6  mph
10  km/h
5  kts
   Wind Direction
 230°
South West
   Airport Data
ENAL
Location Ă…lesund 10 km (6.22 mi)
Metar :ENAL 020750Z 23005KT 190V270 9999 FEW030 BKN049 11/05 Q1002
Thu 2nd July 09:50 am
   Raw Metar Info
Raw METAR is the most common format in the world for the transmission of observational weather data. It is highly standardized through the International Civil Aviation Organization (ICAO), which allows it to be understood throughout most of the world.
   API Info
Data Provided by
https://www.checkwx.com/weather/ENAL
   © Info
CSS/SVG/PHP scripts were developed by weather34.com for use in the weather34 template © 2015-2020

Guide Info provided by Metar-Wikipedia